Mountain Park, Oregon
Current Conditions -  °F | °C
As of 6:53 AM on Sunday 23 Nov 2014 (Local Time) from KUAO Reporting Station
Overcast Overcast  
Wind Chill: 42°   Ceiling: 7000
Heat Index: 48°   Visibility: 10mi
Dew Point: 43°   Wind: 15mph
Humidity: 83%   Direction: 190°S
Pressure: 30.3"   Gusts: 22mph
Location:  45.413°N, 122.725°W
Report Text: KUAO 231453Z AUTO 19013G19KT 10SM OVC070 09/06 A3030 RMK AO2 SLP262 60000 T00890061 53002
Loading
Personal Weather Stations






























Interactive Weather Map New forecast layout! Learn more

10-Day Weather Forecast

Advertisements
Track Severe Weather on mobile